Villemontel, Canada
Current Conditions -  °F | °C
As of 7:00 AM on Monday 20 Oct 2014 (Local Time) from CYUY Reporting Station
Broken Clouds Broken Clouds  
Wind Chill: 25°   Ceiling: 12000
Heat Index: 30°   Visibility: 15mi
Dew Point: 28°   Wind: 5mph
Humidity: 93%   Direction: 140°SE
Pressure: 29.85"   Gusts: NA
Location:  48.62°N, 78.37°W
Report Text: CYUY 201100Z 14004KT 15SM BKN120 M01/M02 A2985 RMK AC6 SLP124
Loading
Personal Weather Stations






























Interactive Weather Map
Tropical Storm Tracking
New forecast layout! Learn more

10-Day Weather Forecast

Advertisements
Track Severe Weather on mobile